createdAt,value
2022-11-24T00:01:11.713Z,-2.00
2022-11-24T00:03:39.007Z,-1.90
2022-11-24T00:06:08.219Z,-1.90
2022-11-24T00:08:36.166Z,-1.90
2022-11-24T00:11:08.082Z,-1.90
2022-11-24T00:13:35.603Z,-1.90
2022-11-24T00:16:11.011Z,-1.90
2022-11-24T00:18:38.970Z,-1.90
2022-11-24T00:21:06.397Z,-1.90
2022-11-24T00:23:34.063Z,-1.90
2022-11-24T00:26:09.441Z,-1.90
2022-11-24T00:28:37.539Z,-1.90
2022-11-24T00:31:16.990Z,-1.90
2022-11-24T00:33:45.146Z,-2.00
2022-11-24T00:36:12.080Z,-2.00
2022-11-24T00:38:39.012Z,-2.00
2022-11-24T00:41:06.462Z,-1.90
2022-11-24T00:43:33.723Z,-1.90
2022-11-24T00:46:01.318Z,-1.90
2022-11-24T00:48:28.646Z,-1.90
2022-11-24T00:51:04.504Z,-1.90
2022-11-24T00:53:34.808Z,-1.80
2022-11-24T00:56:04.075Z,-1.80
2022-11-24T00:58:31.778Z,-1.80
2022-11-24T01:01:20.071Z,-1.80
2022-11-24T01:03:47.547Z,-1.80
2022-11-24T01:06:17.390Z,-1.80
2022-11-24T01:08:44.981Z,-1.80
2022-11-24T01:11:25.179Z,-1.80
2022-11-24T01:13:58.087Z,-1.90
2022-11-24T01:16:31.707Z,-1.90
2022-11-24T01:18:58.598Z,-1.90
2022-11-24T01:21:25.721Z,-1.90
2022-11-24T01:23:52.639Z,-1.90
2022-11-24T01:26:21.985Z,-1.90
2022-11-24T01:28:53.947Z,-1.90
2022-11-24T01:31:21.296Z,-1.90
2022-11-24T01:33:48.234Z,-1.90
2022-11-24T01:36:15.161Z,-1.90
2022-11-24T01:38:43.013Z,-2.00
2022-11-24T01:41:25.365Z,-1.90
2022-11-24T01:43:54.463Z,-2.00
2022-11-24T01:46:43.854Z,-1.90
2022-11-24T01:49:18.281Z,-2.00
2022-11-24T01:51:56.769Z,-2.00
2022-11-24T01:54:33.240Z,-2.00
2022-11-24T01:57:22.345Z,-1.90
2022-11-24T01:59:53.643Z,-2.00
2022-11-24T02:02:21.480Z,-1.90
2022-11-24T02:04:49.792Z,-1.80
2022-11-24T02:07:17.621Z,-1.80
2022-11-24T02:09:54.775Z,-1.80
2022-11-24T02:12:26.850Z,-1.80
2022-11-24T02:14:55.151Z,-1.80
2022-11-24T02:17:22.697Z,-1.80
2022-11-24T02:19:57.459Z,-1.80
2022-11-24T02:22:33.194Z,-1.80
2022-11-24T02:25:14.152Z,-1.70
2022-11-24T02:27:47.017Z,-1.60
2022-11-24T02:30:16.404Z,-1.50
2022-11-24T02:32:43.971Z,-1.60
2022-11-24T02:35:12.167Z,-1.60
2022-11-24T02:37:39.227Z,-1.70
2022-11-24T02:40:06.758Z,-1.70
2022-11-24T02:42:40.032Z,-1.70
2022-11-24T02:45:09.464Z,-1.70
2022-11-24T02:47:36.384Z,-1.70
2022-11-24T02:50:03.899Z,-1.70
2022-11-24T02:52:30.836Z,-1.70
2022-11-24T02:54:57.689Z,-1.70
2022-11-24T02:57:24.606Z,-1.70
2022-11-24T02:59:53.581Z,-1.70
2022-11-24T03:02:20.930Z,-1.70
2022-11-24T03:04:47.830Z,-1.70
2022-11-24T03:07:15.175Z,-1.80
2022-11-24T03:09:42.419Z,-1.80
2022-11-24T03:12:09.246Z,-1.80
2022-11-24T03:14:36.509Z,-1.80
2022-11-24T03:17:04.227Z,-1.80
2022-11-24T03:19:31.151Z,-1.80
2022-11-24T03:21:57.971Z,-1.80
2022-11-24T03:24:24.836Z,-1.80
2022-11-24T03:26:51.792Z,-1.80
2022-11-24T03:29:18.774Z,-1.80
2022-11-24T03:31:46.770Z,-1.80
2022-11-24T03:34:13.620Z,-1.80
2022-11-24T03:36:40.483Z,-1.70
2022-11-24T03:39:07.441Z,-1.70
2022-11-24T03:41:34.279Z,-1.80
2022-11-24T03:44:01.253Z,-1.80
2022-11-24T03:46:28.185Z,-1.80
2022-11-24T03:48:55.089Z,-1.80
2022-11-24T03:51:22.031Z,-1.80
2022-11-24T03:53:48.942Z,-1.80
2022-11-24T03:56:15.800Z,-1.80
2022-11-24T03:58:42.822Z,-1.70
2022-11-24T04:01:09.726Z,-1.70
2022-11-24T04:03:36.587Z,-1.70
2022-11-24T04:06:03.607Z,-1.70
2022-11-24T04:08:30.524Z,-1.80
2022-11-24T04:10:57.461Z,-1.80
2022-11-24T04:13:25.686Z,-1.80
2022-11-24T04:15:53.137Z,-1.70
2022-11-24T04:18:20.891Z,-1.80
2022-11-24T04:20:50.771Z,-1.80
2022-11-24T04:23:18.161Z,-1.80
2022-11-24T04:25:45.103Z,-1.80
2022-11-24T04:28:12.042Z,-1.80
2022-11-24T04:30:44.830Z,-1.80
2022-11-24T04:33:12.442Z,-1.80
2022-11-24T04:35:39.330Z,-1.70
2022-11-24T04:38:06.202Z,-1.70
2022-11-24T04:40:34.925Z,-1.70
2022-11-24T04:43:01.773Z,-1.70
2022-11-24T04:45:28.704Z,-1.70
2022-11-24T04:47:55.667Z,-1.80
2022-11-24T04:50:22.732Z,-1.80
2022-11-24T04:52:49.895Z,-1.80
2022-11-24T04:55:17.006Z,-1.80
2022-11-24T04:57:43.946Z,-1.80
2022-11-24T05:00:11.780Z,-1.80
2022-11-24T05:02:38.731Z,-1.70
2022-11-24T05:05:07.207Z,-1.70
2022-11-24T05:07:34.908Z,-1.70
2022-11-24T05:10:20.850Z,-1.70
2022-11-24T05:12:55.560Z,-1.60
2022-11-24T05:15:22.850Z,-1.70
2022-11-24T05:17:49.740Z,-1.70
2022-11-24T05:20:16.569Z,-1.70
2022-11-24T05:22:43.440Z,-1.70
2022-11-24T05:25:10.730Z,-1.70
2022-11-24T05:27:37.751Z,-1.70
2022-11-24T05:30:05.257Z,-1.70
2022-11-24T05:32:33.254Z,-1.70
2022-11-24T05:35:02.260Z,-1.70
2022-11-24T05:37:29.436Z,-1.70
2022-11-24T05:39:56.238Z,-1.70
2022-11-24T05:42:46.577Z,-1.70
2022-11-24T05:45:23.504Z,-1.70
2022-11-24T05:47:51.609Z,-1.60
2022-11-24T05:50:21.019Z,-1.70
2022-11-24T05:52:49.064Z,-1.70
2022-11-24T05:55:16.066Z,-1.70
2022-11-24T05:57:43.269Z,-1.70
2022-11-24T06:00:10.977Z,-1.70
2022-11-24T06:02:37.972Z,-1.70
2022-11-24T06:05:05.259Z,-1.70
2022-11-24T06:07:32.289Z,-1.70
2022-11-24T06:09:59.244Z,-1.70
2022-11-24T06:12:26.128Z,-1.60
2022-11-24T06:14:53.357Z,-1.60
2022-11-24T06:17:20.299Z,-1.60
2022-11-24T06:19:50.168Z,-1.60
2022-11-24T06:22:18.909Z,-1.60
2022-11-24T06:24:46.498Z,-1.60
2022-11-24T06:27:14.496Z,-1.50
2022-11-24T06:29:43.682Z,-1.50
2022-11-24T06:32:10.637Z,-1.50
2022-11-24T06:34:37.597Z,-1.60
2022-11-24T06:37:04.463Z,-1.60
2022-11-24T06:39:31.468Z,-1.60
2022-11-24T06:41:58.655Z,-1.60
2022-11-24T06:44:25.949Z,-1.50
2022-11-24T06:46:52.825Z,-1.50
2022-11-24T06:49:19.633Z,-1.50
2022-11-24T06:51:46.580Z,-1.40
2022-11-24T06:54:19.961Z,-1.50
2022-11-24T06:56:47.283Z,-1.40
2022-11-24T06:59:20.140Z,-1.50
2022-11-24T07:01:47.510Z,-1.50
2022-11-24T07:04:15.173Z,-1.40
2022-11-24T07:06:42.461Z,-1.40
2022-11-24T07:09:10.942Z,-1.40
2022-11-24T07:11:38.192Z,-1.50
2022-11-24T07:14:05.836Z,-1.50
2022-11-24T07:16:33.441Z,-1.50
2022-11-24T07:19:01.125Z,-1.50
2022-11-24T07:21:29.394Z,-1.50
2022-11-24T07:23:57.687Z,-1.50
2022-11-24T07:26:25.722Z,-1.50
2022-11-24T07:28:52.938Z,-1.50
2022-11-24T07:31:21.713Z,-1.40
2022-11-24T07:33:53.429Z,-1.40
2022-11-24T07:36:20.992Z,-1.40
2022-11-24T07:38:48.217Z,-1.40
2022-11-24T07:41:17.268Z,-1.40
2022-11-24T07:43:44.213Z,-1.30
2022-11-24T07:46:13.445Z,-1.40
2022-11-24T07:48:40.982Z,-1.40
2022-11-24T07:51:08.426Z,-1.40
2022-11-24T07:53:36.200Z,-1.30
2022-11-24T07:56:04.377Z,-1.20
2022-11-24T07:58:34.527Z,-1.30
2022-11-24T08:01:10.300Z,-1.30
2022-11-24T08:03:37.896Z,-1.30
2022-11-24T08:06:24.080Z,-1.20
2022-11-24T08:08:51.787Z,-1.20
2022-11-24T08:11:18.650Z,-1.20
2022-11-24T08:13:45.982Z,-1.20
2022-11-24T08:16:18.289Z,-1.10
2022-11-24T08:18:50.856Z,-1.10
2022-11-24T08:21:17.976Z,-1.10
2022-11-24T08:23:44.957Z,-1.10
2022-11-24T08:26:16.017Z,-1.10
2022-11-24T08:28:43.712Z,-1.10
2022-11-24T08:31:18.746Z,-1.10
2022-11-24T08:33:46.430Z,-1.10
2022-11-24T08:36:16.559Z,-1.00
2022-11-24T08:38:44.846Z,-0.80
2022-11-24T08:41:14.642Z,-0.80
2022-11-24T08:43:41.942Z,-0.80
2022-11-24T08:46:14.293Z,-0.70
2022-11-24T08:48:41.677Z,-0.60
2022-11-24T08:51:13.899Z,-0.80
2022-11-24T08:53:41.903Z,-0.70
2022-11-24T08:56:10.160Z,-0.60
2022-11-24T08:58:37.651Z,-0.70
2022-11-24T09:01:15.619Z,-0.60
2022-11-24T09:03:49.904Z,-0.50
2022-11-24T09:06:26.215Z,-0.50
2022-11-24T09:08:55.955Z,-0.50
2022-11-24T09:11:23.885Z,-0.40
2022-11-24T09:13:51.250Z,-0.50
2022-11-24T09:16:24.161Z,-0.40
2022-11-24T09:18:59.593Z,-0.50
2022-11-24T09:21:26.625Z,-0.50
2022-11-24T09:23:54.925Z,-0.40
2022-11-24T09:26:27.670Z,-0.50
2022-11-24T09:28:56.136Z,-0.50
2022-11-24T09:31:25.634Z,-0.50
2022-11-24T09:33:53.323Z,-0.40
2022-11-24T09:36:21.220Z,-0.30
2022-11-24T09:38:48.536Z,-0.30
2022-11-24T09:41:18.244Z,-0.10
2022-11-24T09:43:51.065Z,0.00
2022-11-24T09:46:41.079Z,0.10
2022-11-24T09:49:13.926Z,0.10
2022-11-24T09:51:44.815Z,0.00
2022-11-24T09:54:20.783Z,0.00
2022-11-24T09:56:49.117Z,0.00
2022-11-24T09:59:19.944Z,0.10
2022-11-24T10:01:48.455Z,0.00
2022-11-24T10:04:22.865Z,0.00
2022-11-24T10:07:17.602Z,0.00
2022-11-24T10:09:54.633Z,0.00
2022-11-24T10:12:48.485Z,0.00
2022-11-24T10:15:38.248Z,-0.10
2022-11-24T10:18:33.013Z,-0.10
2022-11-24T10:21:13.657Z,-0.20
2022-11-24T10:24:22.713Z,-0.10
2022-11-24T10:27:02.057Z,0.00
2022-11-24T10:29:32.684Z,0.10
2022-11-24T10:32:04.125Z,0.00
2022-11-24T10:34:44.918Z,0.00
2022-11-24T10:37:11.746Z,0.00
2022-11-24T10:40:01.097Z,0.00
2022-11-24T10:42:38.342Z,0.00
2022-11-24T10:45:19.716Z,0.00
2022-11-24T10:47:46.975Z,0.00
2022-11-24T10:50:24.081Z,-0.10
2022-11-24T10:53:12.178Z,-0.10
2022-11-24T10:56:05.844Z,-0.10
2022-11-24T10:58:38.053Z,-0.10
2022-11-24T11:01:14.434Z,0.00
2022-11-24T11:03:53.940Z,0.00
2022-11-24T11:06:23.813Z,0.10
2022-11-24T11:09:10.604Z,0.00
2022-11-24T11:11:39.983Z,0.00
2022-11-24T11:14:10.111Z,-0.10
2022-11-24T11:16:54.460Z,-0.20
2022-11-24T11:19:54.257Z,-0.20
2022-11-24T11:22:27.501Z,-0.10
2022-11-24T11:25:13.094Z,0.00
2022-11-24T11:27:40.932Z,0.00
2022-11-24T11:36:16.542Z,-0.10
2022-11-24T11:38:45.058Z,-0.10
2022-11-24T11:41:20.507Z,0.00
2022-11-24T11:43:52.406Z,-0.10
2022-11-24T11:46:19.468Z,-0.10
2022-11-24T11:48:48.000Z,0.00
2022-11-24T11:51:42.000Z,0.00
2022-11-24T11:54:11.935Z,0.00
2022-11-24T11:56:46.733Z,0.00
2022-11-24T11:59:25.453Z,-0.20
2022-11-24T12:02:04.796Z,-0.50
2022-11-24T12:04:31.871Z,-0.30
2022-11-24T12:07:37.723Z,-0.30
2022-11-24T12:10:24.661Z,-0.30
2022-11-24T12:13:00.595Z,-0.40
2022-11-24T12:15:50.293Z,-0.30
2022-11-24T12:21:51.465Z,-0.20
2022-11-24T12:24:45.641Z,-0.20
2022-11-24T12:27:38.395Z,-0.30
2022-11-24T12:30:12.648Z,-0.30
2022-11-24T12:32:39.680Z,-0.30
2022-11-24T12:35:06.458Z,-0.30
2022-11-24T12:37:54.958Z,-0.30
2022-11-24T12:41:18.169Z,-0.30
2022-11-24T12:43:52.418Z,-0.20
2022-11-24T12:46:34.431Z,-0.10
2022-11-24T12:49:27.356Z,-0.10
2022-11-24T12:52:01.615Z,-0.30
2022-11-24T12:54:36.563Z,-0.20
2022-11-24T12:57:09.868Z,-0.20
2022-11-24T12:59:59.237Z,-0.10
2022-11-24T13:02:54.185Z,-0.10
2022-11-24T13:05:48.677Z,-0.10
2022-11-24T13:08:16.190Z,-0.10
2022-11-24T13:10:58.830Z,-0.20
2022-11-24T13:13:58.175Z,-0.20
2022-11-24T13:16:59.275Z,-0.10
2022-11-24T13:19:18.143Z,-0.10
2022-11-24T13:21:50.177Z,-0.10
2022-11-24T13:24:17.628Z,-0.20
2022-11-24T13:26:49.367Z,-0.20
2022-11-24T13:29:30.914Z,-0.10
2022-11-24T13:32:06.495Z,-0.10
2022-11-24T13:34:39.528Z,-0.20
2022-11-24T13:37:35.464Z,-0.20
2022-11-24T13:40:12.192Z,-0.10
2022-11-24T13:42:57.753Z,-0.20
2022-11-24T13:45:39.846Z,-0.20
2022-11-24T13:48:22.593Z,-0.20
2022-11-24T13:50:58.730Z,-0.20
2022-11-24T13:53:49.776Z,-0.20
2022-11-24T13:56:16.650Z,-0.20
2022-11-24T13:58:52.379Z,-0.10
2022-11-24T14:01:19.281Z,-0.20
2022-11-24T14:04:33.353Z,-0.20
2022-11-24T14:07:12.296Z,-0.20
2022-11-24T14:09:47.041Z,-0.20
2022-11-24T14:12:16.935Z,-0.20
2022-11-24T14:14:44.764Z,-0.30
2022-11-24T14:17:14.715Z,-0.30
2022-11-24T14:19:42.469Z,-0.30
2022-11-24T14:22:32.369Z,-0.30
2022-11-24T14:25:00.156Z,-0.30
2022-11-24T14:27:34.211Z,-0.20
2022-11-24T14:30:04.936Z,-0.30
2022-11-24T14:32:33.079Z,-0.30
2022-11-24T14:34:59.976Z,-0.20
2022-11-24T14:37:27.009Z,-0.20
2022-11-24T14:39:54.009Z,-0.20
2022-11-24T14:42:27.560Z,-0.20
2022-11-24T14:45:01.040Z,-0.20
2022-11-24T14:47:32.053Z,-0.20
2022-11-24T14:50:12.347Z,-0.20
2022-11-24T14:52:49.436Z,-0.20
2022-11-24T14:55:30.881Z,-0.10
2022-11-24T14:57:59.106Z,-0.10
2022-11-24T15:00:33.523Z,-0.10
2022-11-24T15:03:05.954Z,-0.20
2022-11-24T15:05:51.468Z,-0.20
2022-11-24T15:08:18.564Z,-0.20
2022-11-24T15:10:46.158Z,-0.20
2022-11-24T15:13:23.319Z,-0.20
2022-11-24T15:16:03.133Z,-0.20
2022-11-24T15:19:01.103Z,-0.20
2022-11-24T15:21:36.497Z,-0.20
2022-11-24T15:24:17.682Z,-0.20
2022-11-24T15:26:45.352Z,-0.20
2022-11-24T15:29:12.814Z,-0.20
2022-11-24T15:31:40.988Z,-0.30
2022-11-24T15:34:12.203Z,-0.30
2022-11-24T15:36:39.908Z,-0.30
2022-11-24T15:39:06.854Z,-0.20
2022-11-24T15:41:35.115Z,-0.20
2022-11-24T15:44:02.289Z,-0.20
2022-11-24T15:46:38.903Z,-0.30
2022-11-24T15:49:08.129Z,-0.20
2022-11-24T15:51:44.244Z,-0.10
2022-11-24T15:54:16.965Z,-0.10
2022-11-24T15:56:45.286Z,-0.20
2022-11-24T15:59:20.177Z,-0.20
2022-11-24T16:01:50.717Z,-0.20
2022-11-24T16:04:18.970Z,-0.20
2022-11-24T16:06:45.825Z,-0.20
2022-11-24T16:09:16.042Z,-0.20
2022-11-24T16:11:42.945Z,-0.20
2022-11-24T16:14:09.876Z,-0.20
2022-11-24T16:16:36.873Z,-0.20
2022-11-24T16:19:04.034Z,-0.20
2022-11-24T16:21:30.956Z,-0.20
2022-11-24T16:23:58.827Z,-0.20
2022-11-24T16:26:25.662Z,-0.20
2022-11-24T16:28:52.612Z,-0.20
2022-11-24T16:31:21.450Z,-0.20
2022-11-24T16:33:49.892Z,-0.10
2022-11-24T16:36:18.285Z,-0.10
2022-11-24T16:38:45.191Z,-0.20
2022-11-24T16:41:12.585Z,-0.10
2022-11-24T16:43:40.803Z,-0.20
2022-11-24T16:46:22.349Z,-0.20
2022-11-24T16:48:51.706Z,-0.20
2022-11-24T16:51:22.330Z,-0.20
2022-11-24T16:53:56.788Z,-0.20
2022-11-24T16:56:23.664Z,-0.20
2022-11-24T16:58:50.575Z,-0.20
2022-11-24T17:01:17.490Z,-0.20
2022-11-24T17:03:45.465Z,-0.10
2022-11-24T17:06:16.284Z,-0.20
2022-11-24T17:08:46.264Z,-0.10
2022-11-24T17:11:14.601Z,-0.20
2022-11-24T17:13:42.599Z,-0.20
2022-11-24T17:16:12.029Z,-0.10
2022-11-24T17:18:41.540Z,-0.10
2022-11-24T17:21:21.437Z,-0.10
2022-11-24T17:23:52.865Z,-0.10
2022-11-24T17:26:19.749Z,-0.10
2022-11-24T17:28:47.002Z,-0.10
2022-11-24T17:31:32.180Z,-0.10
2022-11-24T17:34:00.561Z,-0.10
2022-11-24T17:36:29.920Z,-0.10
2022-11-24T17:38:58.805Z,-0.10
2022-11-24T17:41:25.884Z,-0.10
2022-11-24T17:43:56.158Z,-0.10
2022-11-24T17:46:29.266Z,-0.10
2022-11-24T17:48:56.703Z,-0.10
2022-11-24T17:51:25.460Z,-0.10
2022-11-24T17:53:53.878Z,-0.10
2022-11-24T17:56:25.893Z,-0.10
2022-11-24T17:58:58.240Z,-0.10
2022-11-24T18:01:26.682Z,-0.10
2022-11-24T18:03:54.372Z,-0.10
2022-11-24T18:06:26.223Z,-0.10
2022-11-24T18:08:54.253Z,-0.10
2022-11-24T18:11:31.842Z,-0.10
2022-11-24T18:14:02.304Z,-0.10
2022-11-24T18:16:34.290Z,-0.10
2022-11-24T18:19:09.071Z,-0.10
2022-11-24T18:21:45.227Z,-0.10
2022-11-24T18:24:18.580Z,0.00
2022-11-24T18:26:50.302Z,-0.10
2022-11-24T18:29:17.128Z,-0.10
2022-11-24T18:31:44.076Z,-0.10
2022-11-24T18:34:11.991Z,-0.10
2022-11-24T18:36:38.973Z,-0.10
2022-11-24T18:39:08.187Z,-0.10
2022-11-24T18:41:35.658Z,0.00
2022-11-24T18:44:03.388Z,0.00
2022-11-24T18:46:30.347Z,0.00
2022-11-24T18:48:57.251Z,0.00
2022-11-24T18:51:24.517Z,0.00
2022-11-24T18:54:01.238Z,0.00
2022-11-24T18:56:28.105Z,0.00
2022-11-24T18:58:56.862Z,0.00
2022-11-24T19:01:28.823Z,0.00
2022-11-24T19:03:59.805Z,0.00
2022-11-24T19:06:36.690Z,0.00
2022-11-24T19:09:09.197Z,0.00
2022-11-24T19:11:39.305Z,0.10
2022-11-24T19:14:08.096Z,0.10
2022-11-24T19:16:35.442Z,0.10
2022-11-24T19:19:03.085Z,0.10
2022-11-24T19:21:41.546Z,0.10
2022-11-24T19:24:13.398Z,0.10
2022-11-24T19:26:40.476Z,0.10
2022-11-24T19:29:08.317Z,0.10
2022-11-24T19:31:36.101Z,0.10
2022-11-24T19:34:03.653Z,0.10
2022-11-24T19:36:30.772Z,0.20
2022-11-24T19:38:58.653Z,0.10
2022-11-24T19:41:28.152Z,0.10
2022-11-24T19:43:55.127Z,0.10
2022-11-24T19:46:26.240Z,0.10
2022-11-24T19:48:55.487Z,0.10
2022-11-24T19:51:30.491Z,0.20
2022-11-24T19:53:59.273Z,0.20
2022-11-24T19:56:31.530Z,0.10
2022-11-24T19:58:59.363Z,0.20
2022-11-24T20:01:31.424Z,0.10
2022-11-24T20:04:00.242Z,0.20
2022-11-24T20:06:37.435Z,0.20
2022-11-24T20:09:07.914Z,0.20
2022-11-24T20:11:36.020Z,0.20
2022-11-24T20:14:03.982Z,0.10
2022-11-24T20:16:34.976Z,0.20
2022-11-24T20:19:09.481Z,0.10
2022-11-24T20:21:37.832Z,0.20
2022-11-24T20:24:10.053Z,0.20
2022-11-24T20:26:42.851Z,0.10
2022-11-24T20:29:13.121Z,0.20
2022-11-24T20:31:44.382Z,0.20
2022-11-24T20:34:13.067Z,0.20
2022-11-24T20:36:41.621Z,0.10
2022-11-24T20:39:13.231Z,0.10
2022-11-24T20:41:40.345Z,0.20
2022-11-24T20:44:10.737Z,0.20
2022-11-24T20:46:39.787Z,0.10
2022-11-24T20:49:08.860Z,0.20
2022-11-24T20:51:39.790Z,0.20
2022-11-24T20:54:09.506Z,0.10
2022-11-24T20:56:39.809Z,0.10
2022-11-24T20:59:10.294Z,0.10
2022-11-24T21:01:39.429Z,0.20
2022-11-24T21:04:09.003Z,0.20
2022-11-24T21:06:36.071Z,0.10
2022-11-24T21:09:04.342Z,0.10
2022-11-24T21:11:32.196Z,0.10
2022-11-24T21:13:59.476Z,0.10
2022-11-24T21:16:37.949Z,0.20
2022-11-24T21:19:11.666Z,0.20
2022-11-24T21:21:41.078Z,0.20
2022-11-24T21:24:14.851Z,0.10
2022-11-24T21:26:42.982Z,0.10
2022-11-24T21:29:13.066Z,0.10
2022-11-24T21:31:40.265Z,0.10
2022-11-24T21:34:08.434Z,0.10
2022-11-24T21:36:35.866Z,0.10
2022-11-24T21:39:03.948Z,0.10
2022-11-24T21:41:33.427Z,0.10
2022-11-24T21:44:00.560Z,0.10
2022-11-24T21:46:29.709Z,0.10
2022-11-24T21:48:56.619Z,0.00
2022-11-24T21:51:26.575Z,0.10
2022-11-24T21:53:53.558Z,0.10
2022-11-24T21:56:22.081Z,0.00
2022-11-24T21:58:54.943Z,0.00
2022-11-24T22:01:24.680Z,0.10
2022-11-24T22:03:51.593Z,0.10
2022-11-24T22:06:19.829Z,0.00
2022-11-24T22:08:48.275Z,0.00
2022-11-24T22:11:21.172Z,0.00
2022-11-24T22:13:49.158Z,0.00
2022-11-24T22:16:18.592Z,0.00
2022-11-24T22:18:46.550Z,0.10
2022-11-24T22:21:15.826Z,0.00
2022-11-24T22:23:43.569Z,0.00
2022-11-24T22:26:16.371Z,0.10
2022-11-24T22:28:44.334Z,0.00
2022-11-24T22:31:20.233Z,0.00
2022-11-24T22:33:47.948Z,0.10
2022-11-24T22:36:16.930Z,0.00
2022-11-24T22:38:44.306Z,0.00
2022-11-24T22:41:14.411Z,0.00
2022-11-24T22:43:42.995Z,0.00
2022-11-24T22:46:15.861Z,0.00
2022-11-24T22:48:43.605Z,0.00
2022-11-24T22:51:12.919Z,0.00
2022-11-24T22:53:40.159Z,0.00
2022-11-24T22:56:09.900Z,0.00
2022-11-24T22:58:37.928Z,-0.10
2022-11-24T23:01:10.528Z,-0.10
2022-11-24T23:03:38.614Z,0.00
2022-11-24T23:06:16.788Z,0.00
2022-11-24T23:08:44.714Z,0.00
2022-11-24T23:11:15.024Z,-0.10
2022-11-24T23:13:42.400Z,-0.10
2022-11-24T23:16:14.681Z,-0.10
2022-11-24T23:18:42.132Z,-0.10
2022-11-24T23:21:20.736Z,-0.10
2022-11-24T23:23:48.541Z,-0.10
2022-11-24T23:26:18.535Z,-0.10
2022-11-24T23:28:45.259Z,-0.10
2022-11-24T23:31:15.430Z,-0.10
2022-11-24T23:33:42.940Z,-0.10
2022-11-24T23:36:18.062Z,-0.10
2022-11-24T23:38:45.583Z,-0.10
2022-11-24T23:41:16.018Z,-0.10
2022-11-24T23:43:42.978Z,-0.10
2022-11-24T23:46:12.841Z,-0.20
2022-11-24T23:48:40.018Z,-0.10
2022-11-24T23:51:41.625Z,-0.10
2022-11-24T23:54:09.798Z,-0.10
2022-11-24T23:56:37.080Z,-0.20
2022-11-24T23:59:04.955Z,-0.20
